sensor_id;sensor_type;location;lat;lon;timestamp;pressure;altitude;pressure_sealevel;temperature;humidity
70684;BME280;58263;48.146;11.440;2024-01-10T00:00:24;96353.03;;;-7.58;77.92
70684;BME280;58263;48.146;11.440;2024-01-10T00:02:49;96345.78;;;-7.66;77.73
70684;BME280;58263;48.146;11.440;2024-01-10T00:05:15;96354.94;;;-7.48;78.18
70684;BME280;58263;48.146;11.440;2024-01-10T00:07:40;96352.31;;;-7.48;78.17
70684;BME280;58263;48.146;11.440;2024-01-10T00:10:05;96352.94;;;-7.57;78.06
70684;BME280;58263;48.146;11.440;2024-01-10T00:12:31;96352.00;;;-7.56;77.92
70684;BME280;58263;48.146;11.440;2024-01-10T00:15:01;96353.97;;;-7.59;78.02
70684;BME280;58263;48.146;11.440;2024-01-10T00:17:27;96349.94;;;-7.51;78.10
70684;BME280;58263;48.146;11.440;2024-01-10T00:19:52;96354.00;;;-7.21;77.61
70684;BME280;58263;48.146;11.440;2024-01-10T00:22:17;96352.94;;;-7.57;78.94
70684;BME280;58263;48.146;11.440;2024-01-10T00:24:43;96348.34;;;-7.40;78.86
70684;BME280;58263;48.146;11.440;2024-01-10T00:27:08;96350.75;;;-7.50;79.48
70684;BME280;58263;48.146;11.440;2024-01-10T00:29:35;96343.88;;;-7.38;79.46
70684;BME280;58263;48.146;11.440;2024-01-10T00:32:00;96347.13;;;-7.48;79.37
70684;BME280;58263;48.146;11.440;2024-01-10T00:34:25;96349.31;;;-7.41;80.68
70684;BME280;58263;48.146;11.440;2024-01-10T00:36:51;96351.63;;;-7.50;80.25
70684;BME280;58263;48.146;11.440;2024-01-10T00:39:17;96356.19;;;-7.40;79.54
70684;BME280;58263;48.146;11.440;2024-01-10T00:41:42;96355.13;;;-7.12;79.87
70684;BME280;58263;48.146;11.440;2024-01-10T00:44:07;96346.94;;;-6.82;79.05
70684;BME280;58263;48.146;11.440;2024-01-10T00:46:33;96350.84;;;-7.00;79.01
70684;BME280;58263;48.146;11.440;2024-01-10T00:48:58;96349.63;;;-6.70;78.93
70684;BME280;58263;48.146;11.440;2024-01-10T00:51:23;96357.50;;;-6.96;79.61
70684;BME280;58263;48.146;11.440;2024-01-10T00:53:48;96347.09;;;-6.96;79.66
70684;BME280;58263;48.146;11.440;2024-01-10T00:56:14;96354.34;;;-6.75;79.79
70684;BME280;58263;48.146;11.440;2024-01-10T00:58:39;96345.69;;;-6.89;79.25
70684;BME280;58263;48.146;11.440;2024-01-10T01:01:04;96354.41;;;-6.64;79.43
70684;BME280;58263;48.146;11.440;2024-01-10T01:03:30;96355.84;;;-6.60;79.27
70684;BME280;58263;48.146;11.440;2024-01-10T01:05:55;96357.22;;;-6.54;79.45
70684;BME280;58263;48.146;11.440;2024-01-10T01:08:20;96358.59;;;-6.37;79.00
70684;BME280;58263;48.146;11.440;2024-01-10T01:10:45;96351.59;;;-6.37;79.14
70684;BME280;58263;48.146;11.440;2024-01-10T01:13:11;96361.22;;;-6.37;78.78
70684;BME280;58263;48.146;11.440;2024-01-10T01:15:36;96353.25;;;-6.60;79.35
70684;BME280;58263;48.146;11.440;2024-01-10T01:18:01;96359.44;;;-6.61;80.14
70684;BME280;58263;48.146;11.440;2024-01-10T01:20:26;96357.75;;;-6.62;80.65
70684;BME280;58263;48.146;11.440;2024-01-10T01:22:52;96356.72;;;-6.72;80.87
70684;BME280;58263;48.146;11.440;2024-01-10T01:25:18;96358.50;;;-6.73;82.45
70684;BME280;58263;48.146;11.440;2024-01-10T01:27:43;96359.31;;;-6.59;82.68
70684;BME280;58263;48.146;11.440;2024-01-10T01:30:09;96359.66;;;-6.40;81.49
70684;BME280;58263;48.146;11.440;2024-01-10T01:32:36;96366.44;;;-6.37;82.70
70684;BME280;58263;48.146;11.440;2024-01-10T01:35:01;96363.81;;;-6.37;82.07
70684;BME280;58263;48.146;11.440;2024-01-10T01:37:27;96361.63;;;-6.43;82.27
70684;BME280;58263;48.146;11.440;2024-01-10T01:39:52;96361.28;;;-6.50;82.36
70684;BME280;58263;48.146;11.440;2024-01-10T01:42:18;96369.47;;;-6.43;82.17
70684;BME280;58263;48.146;11.440;2024-01-10T01:44:43;96365.50;;;-6.36;83.63
70684;BME280;58263;48.146;11.440;2024-01-10T01:47:08;96380.69;;;-6.30;83.13
70684;BME280;58263;48.146;11.440;2024-01-10T01:49:33;96377.97;;;-6.29;82.50
70684;BME280;58263;48.146;11.440;2024-01-10T01:51:59;96377.81;;;-6.38;83.02
70684;BME280;58263;48.146;11.440;2024-01-10T01:54:25;96383.13;;;-6.27;82.59
70684;BME280;58263;48.146;11.440;2024-01-10T01:56:51;96377.00;;;-6.15;82.50
70684;BME280;58263;48.146;11.440;2024-01-10T01:59:17;96379.53;;;-5.90;82.68
70684;BME280;58263;48.146;11.440;2024-01-10T02:01:43;96385.63;;;-5.90;82.62
70684;BME280;58263;48.146;11.440;2024-01-10T02:04:08;96382.00;;;-6.12;82.51
70684;BME280;58263;48.146;11.440;2024-01-10T02:06:33;96379.03;;;-6.07;82.38
70684;BME280;58263;48.146;11.440;2024-01-10T02:08:59;96379.16;;;-5.97;82.02
70684;BME280;58263;48.146;11.440;2024-01-10T02:11:25;96382.41;;;-6.18;82.70
70684;BME280;58263;48.146;11.440;2024-01-10T02:13:51;96380.78;;;-6.19;83.67
70684;BME280;58263;48.146;11.440;2024-01-10T02:16:17;96381.06;;;-6.10;82.97
70684;BME280;58263;48.146;11.440;2024-01-10T02:18:42;96380.97;;;-6.22;83.53
70684;BME280;58263;48.146;11.440;2024-01-10T02:21:08;96381.16;;;-6.12;82.94
70684;BME280;58263;48.146;11.440;2024-01-10T02:23:33;96376.16;;;-6.15;83.59
70684;BME280;58263;48.146;11.440;2024-01-10T02:25:58;96380.38;;;-6.25;83.42
70684;BME280;58263;48.146;11.440;2024-01-10T02:28:23;96380.31;;;-6.13;83.11
70684;BME280;58263;48.146;11.440;2024-01-10T02:34:12;96387.88;;;-5.85;81.91
70684;BME280;58263;48.146;11.440;2024-01-10T02:36:37;96386.16;;;-6.09;82.75
70684;BME280;58263;48.146;11.440;2024-01-10T02:39:02;96380.16;;;-5.98;82.67
70684;BME280;58263;48.146;11.440;2024-01-10T02:41:28;96389.16;;;-6.02;82.93
70684;BME280;58263;48.146;11.440;2024-01-10T02:43:53;96386.06;;;-6.07;82.82
70684;BME280;58263;48.146;11.440;2024-01-10T02:46:19;96384.31;;;-5.96;82.30
70684;BME280;58263;48.146;11.440;2024-01-10T02:48:47;96378.22;;;-6.07;82.62
70684;BME280;58263;48.146;11.440;2024-01-10T02:51:12;96386.94;;;-5.84;82.30
70684;BME280;58263;48.146;11.440;2024-01-10T02:53:38;96383.50;;;-5.85;82.38
70684;BME280;58263;48.146;11.440;2024-01-10T02:56:03;96387.38;;;-5.90;82.27
70684;BME280;58263;48.146;11.440;2024-01-10T02:58:28;96385.50;;;-6.00;82.47
70684;BME280;58263;48.146;11.440;2024-01-10T03:00:54;96377.97;;;-6.04;82.65
70684;BME280;58263;48.146;11.440;2024-01-10T03:03:20;96382.38;;;-6.05;83.24
70684;BME280;58263;48.146;11.440;2024-01-10T03:05:45;96377.56;;;-5.98;83.08
70684;BME280;58263;48.146;11.440;2024-01-10T03:08:10;96369.88;;;-6.13;83.12
70684;BME280;58263;48.146;11.440;2024-01-10T03:10:36;96366.41;;;-5.89;82.83
70684;BME280;58263;48.146;11.440;2024-01-10T03:13:01;96364.25;;;-5.84;82.33
70684;BME280;58263;48.146;11.440;2024-01-10T03:15:26;96359.50;;;-5.90;83.14
70684;BME280;58263;48.146;11.440;2024-01-10T03:17:51;96358.66;;;-5.90;82.53
70684;BME280;58263;48.146;11.440;2024-01-10T03:20:16;96363.19;;;-5.81;82.14
70684;BME280;58263;48.146;11.440;2024-01-10T03:22:42;96359.47;;;-6.01;82.58
70684;BME280;58263;48.146;11.440;2024-01-10T03:25:07;96365.22;;;-5.85;82.35
70684;BME280;58263;48.146;11.440;2024-01-10T03:27:32;96356.16;;;-5.92;82.51
70684;BME280;58263;48.146;11.440;2024-01-10T03:29:58;96354.66;;;-5.83;82.90
70684;BME280;58263;48.146;11.440;2024-01-10T03:32:23;96348.72;;;-5.74;82.80
70684;BME280;58263;48.146;11.440;2024-01-10T03:34:49;96343.84;;;-5.90;82.96
70684;BME280;58263;48.146;11.440;2024-01-10T03:37:16;96348.81;;;-5.87;83.73
70684;BME280;58263;48.146;11.440;2024-01-10T03:39:41;96349.03;;;-6.01;83.74
70684;BME280;58263;48.146;11.440;2024-01-10T03:42:07;96353.91;;;-6.08;84.49
70684;BME280;58263;48.146;11.440;2024-01-10T03:44:32;96349.84;;;-6.12;84.62
70684;BME280;58263;48.146;11.440;2024-01-10T03:46:57;96361.88;;;-5.98;84.82
70684;BME280;58263;48.146;11.440;2024-01-10T03:49:22;96343.34;;;-6.06;84.42
70684;BME280;58263;48.146;11.440;2024-01-10T03:51:48;96349.19;;;-5.91;84.07
70684;BME280;58263;48.146;11.440;2024-01-10T03:54:13;96344.53;;;-5.88;83.63
70684;BME280;58263;48.146;11.440;2024-01-10T03:56:38;96347.63;;;-5.94;84.12
70684;BME280;58263;48.146;11.440;2024-01-10T03:59:03;96338.84;;;-5.93;84.47
70684;BME280;58263;48.146;11.440;2024-01-10T04:01:29;96343.38;;;-5.84;83.77
70684;BME280;58263;48.146;11.440;2024-01-10T04:03:54;96346.13;;;-5.74;83.23
70684;BME280;58263;48.146;11.440;2024-01-10T04:06:19;96340.09;;;-5.63;82.32
70684;BME280;58263;48.146;11.440;2024-01-10T04:08:44;96336.31;;;-5.59;82.31
70684;BME280;58263;48.146;11.440;2024-01-10T04:11:10;96340.63;;;-5.82;83.29
70684;BME280;58263;48.146;11.440;2024-01-10T04:13:35;96332.47;;;-5.78;83.48
70684;BME280;58263;48.146;11.440;2024-01-10T04:16:00;96333.78;;;-5.83;83.28
70684;BME280;58263;48.146;11.440;2024-01-10T04:18:26;96334.53;;;-5.70;83.17
70684;BME280;58263;48.146;11.440;2024-01-10T04:20:51;96336.75;;;-5.77;83.25
70684;BME280;58263;48.146;11.440;2024-01-10T04:23:16;96346.97;;;-5.73;83.91
70684;BME280;58263;48.146;11.440;2024-01-10T04:25:42;96339.63;;;-5.68;83.87
70684;BME280;58263;48.146;11.440;2024-01-10T04:28:07;96345.69;;;-5.68;83.87
70684;BME280;58263;48.146;11.440;2024-01-10T04:30:32;96341.13;;;-5.77;84.63
70684;BME280;58263;48.146;11.440;2024-01-10T04:32:57;96341.38;;;-5.69;84.40
70684;BME280;58263;48.146;11.440;2024-01-10T04:35:23;96342.94;;;-5.66;83.84
70684;BME280;58263;48.146;11.440;2024-01-10T04:37:48;96337.97;;;-5.58;83.91
70684;BME280;58263;48.146;11.440;2024-01-10T04:40:13;96334.41;;;-5.57;83.36
70684;BME280;58263;48.146;11.440;2024-01-10T04:42:40;96339.16;;;-5.62;83.36
70684;BME280;58263;48.146;11.440;2024-01-10T04:45:05;96328.13;;;-5.66;83.53
70684;BME280;58263;48.146;11.440;2024-01-10T04:47:32;96328.69;;;-5.73;84.13
70684;BME280;58263;48.146;11.440;2024-01-10T04:49:57;96335.47;;;-5.71;84.29
70684;BME280;58263;48.146;11.440;2024-01-10T04:52:22;96342.69;;;-5.74;84.74
70684;BME280;58263;48.146;11.440;2024-01-10T04:54:48;96333.91;;;-5.73;84.45
70684;BME280;58263;48.146;11.440;2024-01-10T04:57:13;96336.41;;;-5.72;84.48
70684;BME280;58263;48.146;11.440;2024-01-10T04:59:38;96329.50;;;-5.73;84.31
70684;BME280;58263;48.146;11.440;2024-01-10T05:02:03;96332.38;;;-5.65;84.42
70684;BME280;58263;48.146;11.440;2024-01-10T05:04:29;96339.28;;;-5.52;83.45
70684;BME280;58263;48.146;11.440;2024-01-10T05:06:54;96341.06;;;-5.53;83.15
70684;BME280;58263;48.146;11.440;2024-01-10T05:09:19;96330.63;;;-5.53;83.73
70684;BME280;58263;48.146;11.440;2024-01-10T05:11:44;96336.56;;;-5.51;83.58
70684;BME280;58263;48.146;11.440;2024-01-10T05:14:13;96339.78;;;-5.47;83.26
70684;BME280;58263;48.146;11.440;2024-01-10T05:16:38;96337.53;;;-5.52;83.18
70684;BME280;58263;48.146;11.440;2024-01-10T05:19:03;96340.84;;;-5.50;82.92
70684;BME280;58263;48.146;11.440;2024-01-10T05:21:31;96342.88;;;-5.42;82.56
70684;BME280;58263;48.146;11.440;2024-01-10T05:23:56;96342.28;;;-5.46;82.72
70684;BME280;58263;48.146;11.440;2024-01-10T05:26:21;96333.13;;;-5.40;82.66
70684;BME280;58263;48.146;11.440;2024-01-10T05:28:46;96341.13;;;-5.30;82.45
70684;BME280;58263;48.146;11.440;2024-01-10T05:31:12;96336.94;;;-5.10;81.66
70684;BME280;58263;48.146;11.440;2024-01-10T05:33:37;96348.47;;;-5.35;81.85
70684;BME280;58263;48.146;11.440;2024-01-10T05:36:03;96353.81;;;-5.37;82.18
70684;BME280;58263;48.146;11.440;2024-01-10T05:38:28;96346.06;;;-5.50;82.89
70684;BME280;58263;48.146;11.440;2024-01-10T05:40:53;96356.75;;;-5.53;82.42
70684;BME280;58263;48.146;11.440;2024-01-10T05:43:18;96357.94;;;-5.46;82.43
70684;BME280;58263;48.146;11.440;2024-01-10T05:45:44;96354.63;;;-5.48;82.29
70684;BME280;58263;48.146;11.440;2024-01-10T05:48:09;96353.22;;;-5.52;82.52
70684;BME280;58263;48.146;11.440;2024-01-10T05:50:34;96358.19;;;-5.49;82.54
70684;BME280;58263;48.146;11.440;2024-01-10T05:53:00;96366.03;;;-5.37;82.16
70684;BME280;58263;48.146;11.440;2024-01-10T05:55:25;96350.63;;;-5.18;81.75
70684;BME280;58263;48.146;11.440;2024-01-10T05:57:50;96351.59;;;-5.07;81.31
70684;BME280;58263;48.146;11.440;2024-01-10T06:00:16;96364.91;;;-4.99;80.74
70684;BME280;58263;48.146;11.440;2024-01-10T06:02:42;96363.00;;;-4.97;80.93
70684;BME280;58263;48.146;11.440;2024-01-10T06:05:09;96365.25;;;-4.93;80.86
70684;BME280;58263;48.146;11.440;2024-01-10T06:07:38;96367.91;;;-4.81;79.73
70684;BME280;58263;48.146;11.440;2024-01-10T06:10:04;96364.91;;;-4.77;79.86
70684;BME280;58263;48.146;11.440;2024-01-10T06:12:30;96376.81;;;-4.84;79.90
70684;BME280;58263;48.146;11.440;2024-01-10T06:14:56;96377.50;;;-4.82;79.90
70684;BME280;58263;48.146;11.440;2024-01-10T06:17:22;96382.03;;;-4.72;79.53
70684;BME280;58263;48.146;11.440;2024-01-10T06:19:48;96376.44;;;-4.79;79.53
70684;BME280;58263;48.146;11.440;2024-01-10T06:22:14;96373.97;;;-4.92;79.46
70684;BME280;58263;48.146;11.440;2024-01-10T06:24:39;96379.88;;;-5.13;80.61
70684;BME280;58263;48.146;11.440;2024-01-10T06:27:06;96380.84;;;-5.14;80.63
70684;BME280;58263;48.146;11.440;2024-01-10T06:29:32;96382.22;;;-5.21;80.94
70684;BME280;58263;48.146;11.440;2024-01-10T06:31:58;96375.81;;;-5.17;81.32
70684;BME280;58263;48.146;11.440;2024-01-10T06:34:24;96375.34;;;-5.22;80.41
70684;BME280;58263;48.146;11.440;2024-01-10T06:36:49;96378.06;;;-5.35;80.84
70684;BME280;58263;48.146;11.440;2024-01-10T06:39:15;96376.25;;;-5.46;82.03
70684;BME280;58263;48.146;11.440;2024-01-10T06:41:42;96384.75;;;-5.19;81.44
70684;BME280;58263;48.146;11.440;2024-01-10T06:44:07;96378.19;;;-5.25;81.13
70684;BME280;58263;48.146;11.440;2024-01-10T06:46:33;96362.88;;;-5.18;81.37
70684;BME280;58263;48.146;11.440;2024-01-10T06:48:58;96373.69;;;-5.23;80.49
70684;BME280;58263;48.146;11.440;2024-01-10T06:51:24;96377.94;;;-5.33;80.78
70684;BME280;58263;48.146;11.440;2024-01-10T06:53:50;96378.59;;;-5.54;81.43
70684;BME280;58263;48.146;11.440;2024-01-10T06:56:15;96376.94;;;-5.55;81.41
70684;BME280;58263;48.146;11.440;2024-01-10T06:58:40;96385.75;;;-5.45;81.26
70684;BME280;58263;48.146;11.440;2024-01-10T07:01:11;96379.09;;;-5.49;81.15
70684;BME280;58263;48.146;11.440;2024-01-10T07:03:38;96382.47;;;-5.35;81.18
70684;BME280;58263;48.146;11.440;2024-01-10T07:06:04;96386.28;;;-5.28;80.70
70684;BME280;58263;48.146;11.440;2024-01-10T07:08:29;96380.72;;;-5.12;80.57
70684;BME280;58263;48.146;11.440;2024-01-10T07:10:56;96385.34;;;-5.16;80.94
70684;BME280;58263;48.146;11.440;2024-01-10T07:13:21;96387.81;;;-5.14;80.24
70684;BME280;58263;48.146;11.440;2024-01-10T07:15:46;96392.44;;;-5.29;80.52
70684;BME280;58263;48.146;11.440;2024-01-10T07:18:12;96391.75;;;-5.31;79.61
70684;BME280;58263;48.146;11.440;2024-01-10T07:20:37;96397.16;;;-5.46;80.27
70684;BME280;58263;48.146;11.440;2024-01-10T07:23:03;96402.97;;;-5.53;81.32
70684;BME280;58263;48.146;11.440;2024-01-10T07:25:28;96401.06;;;-5.51;80.52
70684;BME280;58263;48.146;11.440;2024-01-10T07:27:53;96409.47;;;-5.59;80.16
70684;BME280;58263;48.146;11.440;2024-01-10T07:30:18;96409.16;;;-5.79;81.68
70684;BME280;58263;48.146;11.440;2024-01-10T07:32:44;96421.53;;;-5.81;82.09
70684;BME280;58263;48.146;11.440;2024-01-10T07:35:11;96411.38;;;-5.61;81.52
70684;BME280;58263;48.146;11.440;2024-01-10T07:37:37;96414.69;;;-5.59;81.19
70684;BME280;58263;48.146;11.440;2024-01-10T07:40:03;96404.31;;;-5.48;80.50
70684;BME280;58263;48.146;11.440;2024-01-10T07:42:31;96412.06;;;-5.59;80.81
70684;BME280;58263;48.146;11.440;2024-01-10T07:44:56;96412.81;;;-5.57;81.16
70684;BME280;58263;48.146;11.440;2024-01-10T07:47:22;96414.31;;;-5.30;80.38
70684;BME280;58263;48.146;11.440;2024-01-10T07:49:47;96411.09;;;-5.45;80.39
70684;BME280;58263;48.146;11.440;2024-01-10T07:52:12;96420.69;;;-5.46;80.92
70684;BME280;58263;48.146;11.440;2024-01-10T07:54:37;96421.28;;;-5.53;81.14
70684;BME280;58263;48.146;11.440;2024-01-10T07:57:03;96420.72;;;-5.34;81.07
70684;BME280;58263;48.146;11.440;2024-01-10T07:59:28;96427.91;;;-5.02;80.17
70684;BME280;58263;48.146;11.440;2024-01-10T08:01:56;96430.31;;;-4.88;79.43
70684;BME280;58263;48.146;11.440;2024-01-10T08:04:26;96422.47;;;-4.77;78.98
70684;BME280;58263;48.146;11.440;2024-01-10T08:06:52;96427.94;;;-4.68;78.43
70684;BME280;58263;48.146;11.440;2024-01-10T08:09:17;96424.28;;;-4.77;78.33
70684;BME280;58263;48.146;11.440;2024-01-10T08:11:44;96428.66;;;-4.66;78.17
70684;BME280;58263;48.146;11.440;2024-01-10T08:14:10;96423.44;;;-4.55;77.64
70684;BME280;58263;48.146;11.440;2024-01-10T08:16:35;96431.81;;;-5.19;79.34
70684;BME280;58263;48.146;11.440;2024-01-10T08:19:00;96437.19;;;-5.10;79.40
70684;BME280;58263;48.146;11.440;2024-01-10T08:21:25;96424.47;;;-4.92;79.61
70684;BME280;58263;48.146;11.440;2024-01-10T08:23:51;96421.16;;;-4.71;78.67
70684;BME280;58263;48.146;11.440;2024-01-10T08:26:16;96414.84;;;-4.57;78.22
70684;BME280;58263;48.146;11.440;2024-01-10T08:28:41;96426.53;;;-4.50;77.03
70684;BME280;58263;48.146;11.440;2024-01-10T08:31:07;96429.16;;;-4.50;77.87
70684;BME280;58263;48.146;11.440;2024-01-10T08:33:33;96425.31;;;-4.91;77.90
70684;BME280;58263;48.146;11.440;2024-01-10T08:35:58;96424.34;;;-4.79;77.98
70684;BME280;58263;48.146;11.440;2024-01-10T08:38:24;96427.22;;;-4.48;77.96
70684;BME280;58263;48.146;11.440;2024-01-10T08:40:49;96425.78;;;-4.29;77.19
70684;BME280;58263;48.146;11.440;2024-01-10T08:43:14;96428.63;;;-4.21;76.22
70684;BME280;58263;48.146;11.440;2024-01-10T08:45:39;96426.22;;;-4.13;76.73
70684;BME280;58263;48.146;11.440;2024-01-10T08:48:05;96430.50;;;-4.00;76.10
70684;BME280;58263;48.146;11.440;2024-01-10T08:50:32;96427.16;;;-4.02;75.94
70684;BME280;58263;48.146;11.440;2024-01-10T08:52:57;96434.22;;;-4.14;75.56
70684;BME280;58263;48.146;11.440;2024-01-10T08:55:22;96430.16;;;-4.07;75.53
70684;BME280;58263;48.146;11.440;2024-01-10T08:57:48;96424.53;;;-3.91;75.40
70684;BME280;58263;48.146;11.440;2024-01-10T09:00:17;96432.41;;;-4.14;75.67
70684;BME280;58263;48.146;11.440;2024-01-10T09:02:42;96442.69;;;-4.33;75.82
70684;BME280;58263;48.146;11.440;2024-01-10T09:05:07;96443.22;;;-3.96;75.76
70684;BME280;58263;48.146;11.440;2024-01-10T09:07:36;96443.06;;;-3.83;74.97
70684;BME280;58263;48.146;11.440;2024-01-10T09:10:01;96441.78;;;-3.88;74.64
70684;BME280;58263;48.146;11.440;2024-01-10T09:12:26;96437.19;;;-3.64;74.40
70684;BME280;58263;48.146;11.440;2024-01-10T09:14:51;96431.75;;;-3.51;73.49
70684;BME280;58263;48.146;11.440;2024-01-10T09:17:17;96445.91;;;-3.75;74.11
70684;BME280;58263;48.146;11.440;2024-01-10T09:19:42;96445.06;;;-3.43;73.39
70684;BME280;58263;48.146;11.440;2024-01-10T09:22:07;96442.16;;;-3.28;72.86
70684;BME280;58263;48.146;11.440;2024-01-10T09:24:33;96441.13;;;-3.16;72.34
70684;BME280;58263;48.146;11.440;2024-01-10T09:26:58;96445.47;;;-3.05;71.58
70684;BME280;58263;48.146;11.440;2024-01-10T09:29:24;96450.56;;;-2.82;71.01
70684;BME280;58263;48.146;11.440;2024-01-10T09:31:50;96448.09;;;-2.84;70.69
70684;BME280;58263;48.146;11.440;2024-01-10T09:34:16;96449.25;;;-2.77;70.29
70684;BME280;58263;48.146;11.440;2024-01-10T09:36:41;96455.63;;;-2.69;70.71
70684;BME280;58263;48.146;11.440;2024-01-10T09:39:07;96442.03;;;-2.53;70.84
70684;BME280;58263;48.146;11.440;2024-01-10T09:41:45;96450.41;;;-2.39;70.04
70684;BME280;58263;48.146;11.440;2024-01-10T09:44:11;96442.94;;;-2.64;70.79
70684;BME280;58263;48.146;11.440;2024-01-10T09:46:38;96448.53;;;-3.21;71.58
70684;BME280;58263;48.146;11.440;2024-01-10T09:49:05;96451.47;;;-2.72;70.32
70684;BME280;58263;48.146;11.440;2024-01-10T09:51:33;96447.22;;;-2.63;70.62
70684;BME280;58263;48.146;11.440;2024-01-10T09:54:02;96458.69;;;-2.33;69.73
70684;BME280;58263;48.146;11.440;2024-01-10T09:56:27;96452.13;;;-2.18;69.31
70684;BME280;58263;48.146;11.440;2024-01-10T09:58:53;96450.56;;;-2.82;69.67
70684;BME280;58263;48.146;11.440;2024-01-10T10:01:20;96453.88;;;-2.90;70.24
70684;BME280;58263;48.146;11.440;2024-01-10T10:03:47;96450.72;;;-3.26;71.29
70684;BME280;58263;48.146;11.440;2024-01-10T10:06:13;96451.50;;;-2.41;70.80
70684;BME280;58263;48.146;11.440;2024-01-10T10:08:39;96447.13;;;-2.21;70.42
70684;BME280;58263;48.146;11.440;2024-01-10T10:11:06;96451.09;;;-1.76;69.12
70684;BME280;58263;48.146;11.440;2024-01-10T10:13:31;96456.41;;;-1.47;67.56
70684;BME280;58263;48.146;11.440;2024-01-10T10:16:01;96456.13;;;-1.14;67.12
70684;BME280;58263;48.146;11.440;2024-01-10T10:18:28;96451.13;;;-0.88;65.52
70684;BME280;58263;48.146;11.440;2024-01-10T10:23:33;96457.06;;;-0.96;64.69
70684;BME280;58263;48.146;11.440;2024-01-10T10:25:58;96446.59;;;-1.25;64.96
70684;BME280;58263;48.146;11.440;2024-01-10T10:28:28;96450.25;;;-0.89;64.80
70684;BME280;58263;48.146;11.440;2024-01-10T10:30:54;96439.88;;;-0.43;63.78
70684;BME280;58263;48.146;11.440;2024-01-10T10:33:19;96442.44;;;-0.23;61.75
70684;BME280;58263;48.146;11.440;2024-01-10T10:35:46;96438.66;;;0.53;60.97
70684;BME280;58263;48.146;11.440;2024-01-10T10:38:11;96444.91;;;1.06;59.43
70684;BME280;58263;48.146;11.440;2024-01-10T10:40:37;96443.47;;;0.94;58.81
70684;BME280;58263;48.146;11.440;2024-01-10T10:43:03;96440.16;;;1.36;57.59
70684;BME280;58263;48.146;11.440;2024-01-10T10:45:31;96433.66;;;1.57;56.35
70684;BME280;58263;48.146;11.440;2024-01-10T10:47:58;96436.38;;;1.99;55.67
70684;BME280;58263;48.146;11.440;2024-01-10T10:50:24;96434.81;;;2.31;54.90
70684;BME280;58263;48.146;11.440;2024-01-10T10:52:51;96429.88;;;2.53;54.53
70684;BME280;58263;48.146;11.440;2024-01-10T10:55:19;96435.97;;;2.37;53.52
70684;BME280;58263;48.146;11.440;2024-01-10T10:57:46;96441.66;;;2.67;53.46
70684;BME280;58263;48.146;11.440;2024-01-10T11:00:19;96431.41;;;3.13;52.27
70684;BME280;58263;48.146;11.440;2024-01-10T11:02:45;96427.53;;;3.57;51.65
70684;BME280;58263;48.146;11.440;2024-01-10T11:05:11;96427.84;;;3.70;51.24
70684;BME280;58263;48.146;11.440;2024-01-10T11:07:42;96436.34;;;3.49;51.36
70684;BME280;58263;48.146;11.440;2024-01-10T11:10:12;96430.41;;;3.95;49.88
70684;BME280;58263;48.146;11.440;2024-01-10T11:12:55;96430.19;;;3.57;50.83
70684;BME280;58263;48.146;11.440;2024-01-10T11:18:54;96433.41;;;3.28;50.63
70684;BME280;58263;48.146;11.440;2024-01-10T11:21:33;96432.22;;;2.64;51.88
70684;BME280;58263;48.146;11.440;2024-01-10T11:24:02;96432.91;;;3.08;51.32
70684;BME280;58263;48.146;11.440;2024-01-10T11:26:28;96435.22;;;3.44;51.03
70684;BME280;58263;48.146;11.440;2024-01-10T11:28:53;96435.72;;;2.65;51.26
70684;BME280;58263;48.146;11.440;2024-01-10T11:31:29;96436.41;;;3.16;50.92
70684;BME280;58263;48.146;11.440;2024-01-10T11:33:56;96437.88;;;2.86;51.83
70684;BME280;58263;48.146;11.440;2024-01-10T11:36:21;96445.16;;;2.84;51.75
70684;BME280;58263;48.146;11.440;2024-01-10T11:41:31;96436.88;;;3.12;50.97
70684;BME280;58263;48.146;11.440;2024-01-10T11:46:40;96424.97;;;3.08;51.16
70684;BME280;58263;48.146;11.440;2024-01-10T11:49:16;96432.91;;;3.08;50.74
70684;BME280;58263;48.146;11.440;2024-01-10T11:51:43;96429.91;;;3.11;51.63
70684;BME280;58263;48.146;11.440;2024-01-10T11:54:09;96428.28;;;3.26;51.21
70684;BME280;58263;48.146;11.440;2024-01-10T11:56:42;96434.38;;;3.35;50.36
70684;BME280;58263;48.146;11.440;2024-01-10T11:59:14;96425.25;;;3.46;49.77
70684;BME280;58263;48.146;11.440;2024-01-10T12:01:42;96429.25;;;3.33;50.20
70684;BME280;58263;48.146;11.440;2024-01-10T12:04:07;96427.94;;;2.88;51.56
70684;BME280;58263;48.146;11.440;2024-01-10T12:06:35;96424.13;;;3.32;50.46
70684;BME280;58263;48.146;11.440;2024-01-10T12:09:04;96431.25;;;3.07;50.68
70684;BME280;58263;48.146;11.440;2024-01-10T12:11:36;96437.63;;;2.38;52.49
70684;BME280;58263;48.146;11.440;2024-01-10T12:14:04;96440.88;;;2.91;51.70
70684;BME280;58263;48.146;11.440;2024-01-10T12:16:29;96432.41;;;3.04;51.66
70684;BME280;58263;48.146;11.440;2024-01-10T12:18:55;96432.75;;;3.01;51.33
70684;BME280;58263;48.146;11.440;2024-01-10T12:21:20;96436.41;;;3.16;50.11
70684;BME280;58263;48.146;11.440;2024-01-10T12:23:46;96445.66;;;2.87;50.95
70684;BME280;58263;48.146;11.440;2024-01-10T12:26:13;96436.19;;;2.60;51.81
70684;BME280;58263;48.146;11.440;2024-01-10T12:28:39;96432.38;;;2.63;51.89
70684;BME280;58263;48.146;11.440;2024-01-10T12:31:05;96431.75;;;2.94;51.15
70684;BME280;58263;48.146;11.440;2024-01-10T12:33:33;96434.56;;;2.84;51.37
70684;BME280;58263;48.146;11.440;2024-01-10T12:36:10;96432.84;;;2.42;52.37
70684;BME280;58263;48.146;11.440;2024-01-10T12:38:37;96433.69;;;2.59;52.26
70684;BME280;58263;48.146;11.440;2024-01-10T12:41:04;96433.72;;;2.83;51.68
70684;BME280;58263;48.146;11.440;2024-01-10T12:43:30;96433.72;;;2.75;52.14
70684;BME280;58263;48.146;11.440;2024-01-10T12:46:11;96427.28;;;3.02;51.46
70684;BME280;58263;48.146;11.440;2024-01-10T12:48:41;96430.25;;;2.66;51.50
70684;BME280;58263;48.146;11.440;2024-01-10T12:51:11;96431.59;;;2.79;52.04
70684;BME280;58263;48.146;11.440;2024-01-10T12:53:41;96430.19;;;2.33;52.50
70684;BME280;58263;48.146;11.440;2024-01-10T12:56:07;96431.22;;;2.49;52.50
70684;BME280;58263;48.146;11.440;2024-01-10T12:58:35;96428.59;;;2.74;51.44
70684;BME280;58263;48.146;11.440;2024-01-10T13:01:04;96428.91;;;2.62;52.42